createdAt,value
2019-03-22T00:02:02.702Z,68.59
2019-03-22T00:04:33.555Z,69.14
2019-03-22T00:07:04.413Z,69.55
2019-03-22T00:09:35.050Z,70.20
2019-03-22T00:12:06.050Z,70.72
2019-03-22T00:14:37.129Z,70.93
2019-03-22T00:17:07.940Z,71.22
2019-03-22T00:19:38.796Z,71.18
2019-03-22T00:22:09.550Z,71.21
2019-03-22T00:24:40.186Z,70.98
2019-03-22T00:27:16.399Z,71.11
2019-03-22T00:29:41.899Z,71.25
2019-03-22T00:32:12.668Z,71.33
2019-03-22T00:34:43.305Z,71.52
2019-03-22T00:37:14.177Z,71.80
2019-03-22T00:39:45.031Z,71.89
2019-03-22T00:42:15.784Z,72.37
2019-03-22T00:44:46.436Z,72.40
2019-03-22T00:47:17.298Z,72.31
2019-03-22T00:49:48.047Z,72.14
2019-03-22T00:52:18.798Z,72.42
2019-03-22T00:54:49.654Z,72.79
2019-03-22T00:57:28.370Z,73.45
2019-03-22T00:59:52.479Z,74.06
2019-03-22T01:02:23.191Z,74.66
2019-03-22T01:04:53.900Z,74.85
2019-03-22T01:07:24.755Z,74.92
2019-03-22T01:09:55.393Z,74.75
2019-03-22T01:12:26.143Z,74.34
2019-03-22T01:14:57.019Z,74.20
2019-03-22T01:17:27.876Z,74.09
2019-03-22T01:19:58.627Z,74.06
2019-03-22T01:22:29.280Z,74.03
2019-03-22T01:25:01.568Z,73.80
2019-03-22T01:27:40.215Z,74.08
2019-03-22T01:30:09.309Z,73.95
2019-03-22T01:32:40.170Z,74.13
2019-03-22T01:35:11.025Z,74.28
2019-03-22T01:37:41.680Z,74.19
2019-03-22T01:40:13.131Z,74.14
2019-03-22T01:42:43.494Z,74.87
2019-03-22T01:45:15.238Z,75.67
2019-03-22T01:47:45.720Z,76.14
2019-03-22T01:50:17.262Z,75.99
2019-03-22T01:52:47.633Z,75.69
2019-03-22T01:55:18.387Z,74.79
2019-03-22T01:57:53.713Z,74.10
2019-03-22T02:00:21.228Z,73.77
2019-03-22T02:02:52.061Z,73.44
2019-03-22T02:05:22.715Z,73.50
2019-03-22T02:07:53.485Z,73.45
2019-03-22T02:10:24.137Z,73.49
2019-03-22T02:12:56.119Z,72.81
2019-03-22T02:15:26.978Z,72.85
2019-03-22T02:17:57.712Z,72.85
2019-03-22T02:20:28.361Z,73.01
2019-03-22T02:22:58.329Z,72.90
2019-03-22T02:25:28.742Z,72.36
2019-03-22T02:28:04.113Z,72.10
2019-03-22T02:30:31.820Z,71.78
2019-03-22T02:33:02.658Z,72.58
2019-03-22T02:35:33.437Z,72.50
2019-03-22T02:38:04.177Z,72.34
2019-03-22T02:40:34.924Z,72.17
2019-03-22T02:43:05.671Z,72.34
2019-03-22T02:45:36.315Z,72.59
2019-03-22T02:48:07.081Z,72.87
2019-03-22T02:50:37.944Z,73.07
2019-03-22T02:53:08.794Z,72.65
2019-03-22T02:55:39.546Z,72.67
2019-03-22T02:58:20.692Z,72.96
2019-03-22T03:00:42.386Z,73.20
2019-03-22T03:03:13.246Z,73.40
2019-03-22T03:05:43.900Z,72.77
2019-03-22T03:08:14.549Z,72.50
2019-03-22T03:10:45.416Z,72.51
2019-03-22T03:13:17.283Z,71.66
2019-03-22T03:15:48.015Z,71.49
2019-03-22T03:18:18.787Z,71.64
2019-03-22T03:20:49.418Z,71.75
2019-03-22T03:23:20.193Z,71.95
2019-03-22T03:25:50.828Z,72.05
2019-03-22T03:28:35.699Z,71.93
2019-03-22T03:30:53.683Z,71.85
2019-03-22T03:33:23.740Z,70.96
2019-03-22T03:35:54.267Z,71.05
2019-03-22T03:38:24.329Z,70.89
2019-03-22T03:40:54.954Z,70.72
2019-03-22T03:43:25.711Z,70.59
2019-03-22T03:45:56.567Z,70.88
2019-03-22T03:48:27.305Z,71.06
2019-03-22T03:50:58.079Z,70.81
2019-03-22T03:53:28.727Z,70.52
2019-03-22T03:55:59.581Z,70.90
2019-03-22T03:58:30.334Z,70.94
2019-03-22T04:01:01.089Z,70.96
2019-03-22T04:03:31.625Z,70.78
2019-03-22T04:06:03.119Z,71.05
2019-03-22T04:08:33.460Z,71.32
2019-03-22T04:11:03.520Z,71.34
2019-03-22T04:13:34.944Z,71.29
2019-03-22T04:16:05.818Z,71.39
2019-03-22T04:18:36.455Z,70.82
2019-03-22T04:21:06.528Z,70.95
2019-03-22T04:23:37.056Z,71.30
2019-03-22T04:26:07.707Z,71.05
2019-03-22T04:28:38.445Z,70.37
2019-03-22T04:31:09.207Z,69.86
2019-03-22T04:33:39.853Z,69.87
2019-03-22T04:36:10.515Z,69.53
2019-03-22T04:38:40.476Z,69.65
2019-03-22T04:41:11.205Z,69.35
2019-03-22T04:43:41.860Z,69.19
2019-03-22T04:46:12.493Z,69.08
2019-03-22T04:48:43.246Z,68.84
2019-03-22T04:51:13.895Z,68.29
2019-03-22T04:53:45.779Z,67.69
2019-03-22T04:56:16.916Z,67.19
2019-03-22T04:58:47.406Z,66.98
2019-03-22T05:01:18.977Z,67.01
2019-03-22T05:03:49.820Z,66.59
2019-03-22T05:06:20.586Z,66.66
2019-03-22T05:08:51.340Z,66.52
2019-03-22T05:11:21.993Z,66.40
2019-03-22T05:13:53.871Z,66.42
2019-03-22T05:16:24.729Z,66.71
2019-03-22T05:18:55.360Z,66.33
2019-03-22T05:21:26.012Z,65.95
2019-03-22T05:23:56.088Z,65.96
2019-03-22T05:26:27.338Z,65.82
2019-03-22T05:28:57.679Z,65.48
2019-03-22T05:31:31.588Z,65.46
2019-03-22T05:34:02.358Z,65.15
2019-03-22T05:36:33.109Z,64.83
2019-03-22T05:39:05.497Z,64.82
2019-03-22T05:41:36.462Z,64.62
2019-03-22T05:44:07.218Z,64.62
2019-03-22T05:46:37.744Z,64.32
2019-03-22T05:49:08.495Z,63.90
2019-03-22T05:51:39.253Z,63.78
2019-03-22T05:54:10.022Z,63.99
2019-03-22T05:56:40.673Z,63.31
2019-03-22T05:59:11.531Z,63.05
2019-03-22T06:01:42.285Z,63.28
2019-03-22T06:04:13.039Z,63.28
2019-03-22T06:06:43.692Z,62.85
2019-03-22T06:09:14.547Z,62.56
2019-03-22T06:11:45.178Z,61.97
2019-03-22T06:14:16.873Z,61.87
2019-03-22T06:16:47.507Z,61.76
2019-03-22T06:19:18.275Z,61.34
2019-03-22T06:21:49.131Z,61.20
2019-03-22T06:24:22.213Z,60.91
2019-03-22T06:26:52.178Z,59.93
2019-03-22T06:29:22.826Z,60.08
2019-03-22T06:31:53.684Z,59.65
2019-03-22T06:34:24.322Z,58.91
2019-03-22T06:36:54.967Z,58.07
2019-03-22T06:39:25.739Z,57.85
2019-03-22T06:41:56.594Z,57.63
2019-03-22T06:44:27.333Z,58.04
2019-03-22T06:46:58.103Z,57.10
2019-03-22T06:49:28.859Z,57.06
2019-03-22T06:51:59.508Z,57.81
2019-03-22T06:54:31.748Z,57.92
2019-03-22T06:57:02.958Z,58.38
2019-03-22T06:59:33.610Z,58.85
2019-03-22T07:02:04.465Z,58.09
2019-03-22T07:04:35.232Z,56.75
2019-03-22T07:07:05.977Z,56.17
2019-03-22T07:09:36.713Z,55.18
2019-03-22T07:12:07.576Z,54.58
2019-03-22T07:14:38.338Z,54.91
2019-03-22T07:17:08.791Z,55.46
2019-03-22T07:19:38.631Z,54.87
2019-03-22T07:22:09.158Z,53.67
2019-03-22T07:24:40.639Z,53.83
2019-03-22T07:27:11.088Z,53.82
2019-03-22T07:29:42.130Z,54.00
2019-03-22T07:32:13.002Z,53.62
2019-03-22T07:34:43.861Z,52.77
2019-03-22T07:37:14.612Z,51.64
2019-03-22T07:39:45.144Z,51.05
2019-03-22T07:42:17.586Z,51.10
2019-03-22T07:44:48.204Z,51.46
2019-03-22T07:47:18.937Z,50.20
2019-03-22T07:49:49.606Z,49.30
2019-03-22T07:52:20.467Z,49.26
2019-03-22T07:54:51.098Z,49.39
2019-03-22T07:57:21.873Z,48.88
2019-03-22T07:59:52.525Z,49.59
2019-03-22T08:02:25.525Z,49.40
2019-03-22T08:04:55.877Z,48.66
2019-03-22T08:07:26.623Z,49.19
2019-03-22T08:09:57.465Z,49.99
2019-03-22T08:12:28.442Z,49.70
2019-03-22T08:15:00.384Z,49.22
2019-03-22T08:17:31.296Z,47.99
2019-03-22T08:20:11.309Z,47.55
2019-03-22T08:22:41.989Z,47.61
2019-03-22T08:25:15.503Z,46.63
2019-03-22T08:27:46.246Z,46.68
2019-03-22T08:30:28.660Z,46.36
2019-03-22T08:32:58.998Z,45.79
2019-03-22T08:35:29.675Z,45.28
2019-03-22T08:38:00.730Z,45.68
2019-03-22T08:40:31.487Z,46.05
2019-03-22T08:43:02.340Z,45.46
2019-03-22T08:45:33.198Z,45.67
2019-03-22T08:48:03.982Z,43.80
2019-03-22T08:50:34.684Z,44.14
2019-03-22T08:53:05.605Z,42.69
2019-03-22T08:55:36.416Z,41.96
2019-03-22T08:58:07.151Z,41.08
2019-03-22T09:00:39.626Z,41.38
2019-03-22T09:03:10.139Z,41.93
2019-03-22T09:05:40.889Z,41.20
2019-03-22T09:08:11.517Z,40.97
2019-03-22T09:10:42.503Z,40.36
2019-03-22T09:13:13.337Z,40.29
2019-03-22T09:15:45.018Z,39.78
2019-03-22T09:18:15.929Z,39.15
2019-03-22T09:20:46.724Z,37.38
2019-03-22T09:23:17.575Z,38.09
2019-03-22T09:25:48.013Z,37.93
2019-03-22T09:28:18.784Z,38.45
2019-03-22T09:30:49.628Z,38.43
2019-03-22T09:33:20.522Z,38.92
2019-03-22T09:35:51.404Z,39.42
2019-03-22T09:38:22.197Z,39.91
2019-03-22T09:40:52.850Z,39.85
2019-03-22T09:43:23.807Z,40.08
2019-03-22T09:45:54.566Z,40.60
2019-03-22T09:48:25.747Z,41.50
2019-03-22T09:50:56.694Z,40.78
2019-03-22T09:53:30.307Z,41.51
2019-03-22T09:55:59.726Z,41.50
2019-03-22T09:58:30.583Z,42.31
2019-03-22T10:01:01.299Z,43.33
2019-03-22T10:03:31.990Z,42.24
2019-03-22T10:06:02.827Z,42.55
2019-03-22T10:08:35.234Z,42.47
2019-03-22T10:11:06.129Z,42.58
2019-03-22T10:13:37.505Z,43.17
2019-03-22T10:16:09.279Z,42.91
2019-03-22T10:18:40.097Z,42.88
2019-03-22T10:21:21.948Z,43.34
2019-03-22T10:23:43.585Z,43.21
2019-03-22T10:26:14.002Z,43.71
2019-03-22T10:28:44.841Z,44.09
2019-03-22T10:31:15.701Z,44.43
2019-03-22T10:33:47.996Z,44.68
2019-03-22T10:36:18.059Z,44.99
2019-03-22T10:38:50.440Z,45.01
2019-03-22T10:41:20.556Z,45.72
2019-03-22T10:43:51.329Z,45.47
2019-03-22T10:46:22.120Z,45.42
2019-03-22T10:48:53.066Z,45.13
2019-03-22T10:51:23.834Z,44.72
2019-03-22T10:53:54.670Z,44.51
2019-03-22T10:56:25.593Z,44.95
2019-03-22T10:58:56.344Z,46.41
2019-03-22T11:01:27.101Z,45.27
2019-03-22T11:03:58.566Z,45.57
2019-03-22T11:06:28.997Z,46.58
2019-03-22T11:08:59.648Z,46.65
2019-03-22T11:11:30.520Z,47.48
2019-03-22T11:14:01.383Z,46.67
2019-03-22T11:16:33.137Z,45.89
2019-03-22T11:19:04.300Z,45.94
2019-03-22T11:21:34.955Z,46.04
2019-03-22T11:24:05.827Z,46.51
2019-03-22T11:26:36.581Z,46.77
2019-03-22T11:29:07.234Z,46.80
2019-03-22T11:31:40.232Z,46.55
2019-03-22T11:34:22.562Z,47.08
2019-03-22T15:18:40.004Z,70.04
2019-03-22T15:21:31.747Z,70.58
2019-03-22T15:24:20.294Z,70.65
2019-03-22T15:26:59.533Z,70.88
2019-03-22T15:29:31.934Z,70.32
2019-03-22T15:32:07.907Z,70.24
2019-03-22T15:34:39.977Z,70.31
2019-03-22T15:37:15.441Z,70.64
2019-03-22T15:39:48.342Z,70.92
2019-03-22T15:42:19.301Z,71.54
2019-03-22T15:44:49.875Z,71.32
2019-03-22T15:47:20.808Z,71.40
2019-03-22T15:49:51.456Z,70.30
2019-03-22T15:52:22.931Z,70.68
2019-03-22T15:54:54.451Z,69.81
2019-03-22T15:57:25.870Z,69.42
2019-03-22T15:59:56.416Z,69.61
2019-03-22T16:02:27.523Z,69.56
2019-03-22T16:05:00.975Z,69.49
2019-03-22T16:07:31.830Z,69.34
2019-03-22T16:10:02.703Z,68.44
2019-03-22T16:12:33.440Z,68.16
2019-03-22T16:15:11.661Z,68.14
2019-03-22T16:17:42.533Z,70.25
2019-03-22T16:20:14.481Z,72.76
2019-03-22T16:22:45.456Z,75.24
2019-03-22T16:25:15.814Z,74.83
2019-03-22T16:27:45.766Z,75.69
2019-03-22T16:30:16.300Z,75.71
2019-03-22T16:32:46.951Z,76.08
2019-03-22T16:35:17.609Z,76.47
2019-03-22T16:37:48.284Z,76.22
2019-03-22T16:40:24.091Z,76.86
2019-03-22T16:42:50.991Z,76.98
2019-03-22T16:45:40.563Z,77.36
2019-03-22T16:48:11.299Z,77.69
2019-03-22T16:50:42.281Z,77.91
2019-03-22T16:53:12.810Z,77.92
2019-03-22T16:55:43.565Z,77.42
2019-03-22T16:58:14.333Z,77.94
2019-03-22T17:00:44.984Z,78.29
2019-03-22T17:03:15.641Z,77.74
2019-03-22T17:05:46.272Z,77.53
2019-03-22T17:08:16.822Z,77.43
2019-03-22T17:10:46.901Z,77.19
2019-03-22T17:13:17.514Z,77.84
2019-03-22T17:15:48.057Z,76.98
2019-03-22T17:18:18.138Z,77.26
2019-03-22T17:20:49.582Z,77.37
2019-03-22T17:23:20.337Z,77.24
2019-03-22T17:25:50.868Z,77.19
2019-03-22T17:28:20.950Z,76.96
2019-03-22T17:30:51.479Z,76.75
2019-03-22T17:33:22.007Z,77.09
2019-03-22T17:35:52.085Z,77.29
2019-03-22T17:38:22.616Z,76.65
2019-03-22T17:40:53.263Z,76.97
2019-03-22T17:43:23.897Z,76.89
2019-03-22T17:45:53.975Z,76.86
2019-03-22T17:48:24.380Z,76.33
2019-03-22T17:50:54.247Z,76.02
2019-03-22T17:53:24.781Z,76.27
2019-03-22T17:55:54.844Z,76.76
2019-03-22T17:58:25.250Z,76.30
2019-03-22T18:00:55.218Z,76.17
2019-03-22T18:03:25.638Z,76.67
2019-03-22T18:05:55.601Z,76.85
2019-03-22T18:08:26.133Z,76.85
2019-03-22T18:10:56.197Z,77.07
2019-03-22T18:13:27.348Z,76.87
2019-03-22T18:15:58.190Z,76.42
2019-03-22T18:18:27.948Z,76.55
2019-03-22T18:20:59.375Z,76.23
2019-03-22T18:23:35.711Z,76.15
2019-03-22T18:26:02.437Z,75.98
2019-03-22T18:28:33.188Z,76.02
2019-03-22T18:31:04.045Z,76.53
2019-03-22T18:33:34.695Z,76.26
2019-03-22T18:36:05.227Z,75.92
2019-03-22T18:38:35.306Z,76.20
2019-03-22T18:41:05.833Z,75.50
2019-03-22T18:43:36.482Z,75.72
2019-03-22T18:46:07.014Z,75.20
2019-03-22T18:48:37.582Z,75.11
2019-03-22T18:51:08.133Z,74.92
2019-03-22T18:53:38.198Z,74.91
2019-03-22T18:56:08.598Z,75.27
2019-03-22T18:58:39.147Z,75.15
2019-03-22T19:01:09.015Z,74.57
2019-03-22T19:03:39.431Z,74.84
2019-03-22T19:06:10.097Z,74.79
2019-03-22T19:08:40.050Z,75.33
2019-03-22T19:11:10.583Z,74.95
2019-03-22T19:13:40.644Z,74.08
2019-03-22T19:16:11.050Z,73.82
2019-03-22T19:18:41.130Z,74.12
2019-03-22T19:21:12.459Z,74.54
2019-03-22T19:23:42.918Z,74.51
2019-03-22T19:26:13.467Z,75.03
2019-03-22T19:28:43.534Z,74.44
2019-03-22T19:31:13.954Z,74.18
2019-03-22T19:33:44.824Z,74.13
2019-03-22T19:36:14.950Z,74.27
2019-03-22T19:38:45.017Z,74.48
2019-03-22T19:41:16.951Z,73.82
2019-03-22T19:43:47.516Z,73.82
2019-03-22T19:46:18.048Z,73.99
2019-03-22T19:48:48.130Z,73.71
2019-03-22T19:51:18.535Z,72.57
2019-03-22T19:53:48.615Z,72.75
2019-03-22T19:56:19.141Z,72.48
2019-03-22T19:58:49.795Z,72.13
2019-03-22T20:01:20.442Z,71.41
2019-03-22T20:03:51.199Z,70.91
2019-03-22T20:06:21.541Z,70.68
2019-03-22T20:08:51.390Z,70.97
2019-03-22T20:11:22.175Z,71.40
2019-03-22T20:13:52.661Z,71.18
2019-03-22T20:16:22.428Z,71.19
2019-03-22T20:18:52.963Z,71.64
2019-03-22T20:21:24.531Z,71.46
2019-03-22T20:23:55.267Z,71.76
2019-03-22T20:26:25.817Z,71.43
2019-03-22T20:28:56.384Z,71.76
2019-03-22T20:31:26.447Z,71.94
2019-03-22T20:33:56.953Z,71.50
2019-03-22T20:36:26.819Z,72.02
2019-03-22T20:38:57.354Z,72.42
2019-03-22T20:41:28.007Z,72.89
2019-03-22T20:43:57.968Z,73.01
2019-03-22T20:46:28.493Z,72.70
2019-03-22T20:48:59.145Z,72.70
2019-03-22T20:51:29.796Z,72.63
2019-03-22T20:54:00.446Z,71.76
2019-03-22T20:56:30.977Z,71.90
2019-03-22T20:59:00.944Z,70.49
2019-03-22T21:01:31.479Z,71.06
2019-03-22T21:04:01.439Z,70.88
2019-03-22T21:06:31.985Z,70.98
2019-03-22T21:09:01.940Z,70.95
2019-03-22T21:11:32.452Z,70.77
2019-03-22T21:14:02.513Z,70.05
2019-03-22T21:16:32.917Z,70.36
2019-03-22T21:19:02.996Z,69.71
2019-03-22T21:21:36.573Z,69.38
2019-03-22T21:24:05.502Z,69.13
2019-03-22T21:26:35.351Z,68.76
2019-03-22T21:29:05.765Z,68.87
2019-03-22T21:31:35.844Z,68.64
2019-03-22T21:34:06.325Z,68.75
2019-03-22T21:36:37.022Z,68.09
2019-03-22T21:39:07.187Z,68.01
2019-03-22T21:41:37.386Z,67.77
2019-03-22T21:44:07.465Z,67.69
2019-03-22T21:46:37.992Z,67.17
2019-03-22T21:49:07.942Z,66.41
2019-03-22T21:51:38.474Z,66.42
2019-03-22T21:54:08.427Z,66.52
2019-03-22T21:56:40.291Z,66.75
2019-03-22T21:59:10.737Z,66.75
2019-03-22T22:01:41.387Z,66.94
2019-03-22T22:04:12.041Z,66.70
2019-03-22T22:06:42.691Z,66.43
2019-03-22T22:09:12.652Z,66.44
2019-03-22T22:11:43.059Z,66.03
2019-03-22T22:14:13.137Z,66.07
2019-03-22T22:16:43.659Z,66.42
2019-03-22T22:19:14.316Z,64.94
2019-03-22T22:21:44.844Z,65.47
2019-03-22T22:24:15.627Z,65.74
2019-03-22T22:26:46.284Z,65.58
2019-03-22T22:29:16.921Z,66.20
2019-03-22T22:31:47.570Z,67.11
2019-03-22T22:34:17.532Z,67.62
2019-03-22T22:36:48.058Z,68.05
2019-03-22T22:39:18.016Z,68.54
2019-03-22T22:41:48.423Z,69.11
2019-03-22T22:44:18.307Z,69.18
2019-03-22T22:46:48.358Z,69.32
2019-03-22T22:49:18.694Z,69.67
2019-03-22T22:51:49.010Z,69.94
2019-03-22T22:54:19.427Z,69.41
2019-03-22T22:56:49.509Z,69.42
2019-03-22T22:59:20.032Z,69.14
2019-03-22T23:01:49.986Z,68.62
2019-03-22T23:04:20.399Z,67.80
2019-03-22T23:06:51.069Z,67.55
2019-03-22T23:09:21.823Z,67.45
2019-03-22T23:11:52.574Z,67.20
2019-03-22T23:14:23.208Z,65.71
2019-03-22T23:16:53.178Z,63.96
2019-03-22T23:19:23.712Z,63.93
2019-03-22T23:21:54.361Z,62.88
2019-03-22T23:24:25.013Z,62.79
2019-03-22T23:26:55.666Z,62.25
2019-03-22T23:29:26.203Z,61.66
2019-03-22T23:31:56.178Z,61.39
2019-03-22T23:34:26.579Z,60.71
2019-03-22T23:36:56.661Z,60.25
2019-03-22T23:39:27.083Z,59.86
2019-03-22T23:41:57.821Z,59.66
2019-03-22T23:44:28.692Z,59.86
2019-03-22T23:46:59.345Z,60.12
2019-03-22T23:49:29.308Z,59.31
2019-03-22T23:51:59.828Z,58.90
2019-03-22T23:54:30.366Z,58.84
2019-03-22T23:57:00.931Z,59.08
2019-03-22T23:59:31.482Z,59.35
